グアム の空港の天気 - METARとTAF

グアム国際空港 ( PGUM / GUM ) - グアム ハガニア
飛行場実況気象(Metar)
観測時間01/20 11:02 ChST (01/20 01:02 UTC)
風向・風速東北東 9m/s
視程10km以上
天気現象
少しの雲 雲底高度 700m
全天の4割程度の雲 雲底高度 850m
気温30℃
湿度62%
気圧1015hPa
METARPGUM 200102Z 06018KT 10SM FEW023 SCT028 30/22 A2996 RMK AO2 $
過去の天気等 Google飛行場航空写真 Wunderground天気予報

過去48時間のMETAR

飛行場予報(TAF)
発表時間: 1/20 09:20 ChST (1/19 23:20 UTC)
予報対象時間: 20日10時 ChST ~ 21日16時 ChST
風向・風速東北東 6m/s 瞬間風速 10m/s
視程10km以上
天気現象周辺でしゅう雨
少しの雲 雲底高度 610m
全天の4割程度の雲 雲底高度 1,220m
20日17時 ChST から
風向・風速東北東 6m/s
視程10km以上
天気現象周辺でしゅう雨
全天の4割程度の雲 雲底高度 610m
全天の4割程度の雲 雲底高度 1,220m
全天の8割程度の雲 雲底高度 3,050m
PGUM 192320Z 2000/2106 06012G20KT P6SM VCSH FEW020 SCT040
FM200700 06012KT P6SM VCSH SCT020 SCT040 BKN100